sensor_id;sensor_type;location;lat;lon;timestamp;temperature;humidity
20560;DHT22;10438;51.454;6.718;2022-10-17T00:01:45;15.70;99.90
20560;DHT22;10438;51.454;6.718;2022-10-17T00:04:11;15.70;99.90
20560;DHT22;10438;51.454;6.718;2022-10-17T00:06:36;15.70;99.90
20560;DHT22;10438;51.454;6.718;2022-10-17T00:09:02;15.70;99.90
20560;DHT22;10438;51.454;6.718;2022-10-17T00:11:28;15.80;99.90
20560;DHT22;10438;51.454;6.718;2022-10-17T00:13:55;15.80;99.90
20560;DHT22;10438;51.454;6.718;2022-10-17T00:16:29;15.80;99.90
20560;DHT22;10438;51.454;6.718;2022-10-17T00:18:55;15.80;99.90
20560;DHT22;10438;51.454;6.718;2022-10-17T00:21:22;15.80;99.90
20560;DHT22;10438;51.454;6.718;2022-10-17T00:23:48;15.90;99.90
20560;DHT22;10438;51.454;6.718;2022-10-17T00:26:15;15.90;99.90
20560;DHT22;10438;51.454;6.718;2022-10-17T00:28:41;15.90;99.90
20560;DHT22;10438;51.454;6.718;2022-10-17T00:31:07;15.90;99.90
20560;DHT22;10438;51.454;6.718;2022-10-17T00:33:34;15.90;99.90
20560;DHT22;10438;51.454;6.718;2022-10-17T00:36:12;15.90;99.90
20560;DHT22;10438;51.454;6.718;2022-10-17T00:38:38;15.90;99.90
20560;DHT22;10438;51.454;6.718;2022-10-17T00:41:07;15.90;99.90
20560;DHT22;10438;51.454;6.718;2022-10-17T00:46:17;16.00;99.90
20560;DHT22;10438;51.454;6.718;2022-10-17T00:48:44;16.00;99.90
20560;DHT22;10438;51.454;6.718;2022-10-17T00:51:10;16.00;99.90
20560;DHT22;10438;51.454;6.718;2022-10-17T00:53:36;16.00;99.90
20560;DHT22;10438;51.454;6.718;2022-10-17T00:56:03;16.10;99.90
20560;DHT22;10438;51.454;6.718;2022-10-17T00:58:29;16.10;99.90
20560;DHT22;10438;51.454;6.718;2022-10-17T01:00:55;16.10;99.90
20560;DHT22;10438;51.454;6.718;2022-10-17T01:03:21;16.10;99.90
20560;DHT22;10438;51.454;6.718;2022-10-17T01:05:46;16.20;99.90
20560;DHT22;10438;51.454;6.718;2022-10-17T01:08:12;16.20;99.90
20560;DHT22;10438;51.454;6.718;2022-10-17T01:13:21;16.20;99.90
20560;DHT22;10438;51.454;6.718;2022-10-17T01:15:58;16.30;99.90
20560;DHT22;10438;51.454;6.718;2022-10-17T01:21:23;16.40;99.90
20560;DHT22;10438;51.454;6.718;2022-10-17T01:24:20;16.40;99.90
20560;DHT22;10438;51.454;6.718;2022-10-17T01:29:46;16.50;99.90
20560;DHT22;10438;51.454;6.718;2022-10-17T01:32:34;16.50;99.90
20560;DHT22;10438;51.454;6.718;2022-10-17T01:36:11;16.50;99.90
20560;DHT22;10438;51.454;6.718;2022-10-17T01:38:17;16.50;99.90
20560;DHT22;10438;51.454;6.718;2022-10-17T01:40:52;16.50;99.90
20560;DHT22;10438;51.454;6.718;2022-10-17T01:43:30;16.50;99.90
20560;DHT22;10438;51.454;6.718;2022-10-17T01:46:02;16.50;99.90
20560;DHT22;10438;51.454;6.718;2022-10-17T01:48:34;16.50;99.90
20560;DHT22;10438;51.454;6.718;2022-10-17T01:51:08;16.60;99.90
20560;DHT22;10438;51.454;6.718;2022-10-17T01:53:38;16.60;99.90
20560;DHT22;10438;51.454;6.718;2022-10-17T01:56:07;16.60;99.90
20560;DHT22;10438;51.454;6.718;2022-10-17T01:58:39;16.60;99.90
20560;DHT22;10438;51.454;6.718;2022-10-17T02:01:07;16.60;99.90
20560;DHT22;10438;51.454;6.718;2022-10-17T02:03:34;16.60;99.90
20560;DHT22;10438;51.454;6.718;2022-10-17T02:06:00;16.60;99.90
20560;DHT22;10438;51.454;6.718;2022-10-17T02:08:28;16.60;99.90
20560;DHT22;10438;51.454;6.718;2022-10-17T02:11:10;16.60;99.90
20560;DHT22;10438;51.454;6.718;2022-10-17T02:16:47;16.70;99.90
20560;DHT22;10438;51.454;6.718;2022-10-17T02:20:04;16.70;99.90
20560;DHT22;10438;51.454;6.718;2022-10-17T02:25:17;16.80;99.90
20560;DHT22;10438;51.454;6.718;2022-10-17T02:27:52;16.70;99.90
20560;DHT22;10438;51.454;6.718;2022-10-17T02:30:41;16.80;99.90
20560;DHT22;10438;51.454;6.718;2022-10-17T02:35:39;16.80;99.90
20560;DHT22;10438;51.454;6.718;2022-10-17T02:38:07;16.80;99.90
20560;DHT22;10438;51.454;6.718;2022-10-17T02:40:35;16.80;99.90
20560;DHT22;10438;51.454;6.718;2022-10-17T02:43:01;16.80;99.90
20560;DHT22;10438;51.454;6.718;2022-10-17T02:45:28;16.80;99.90
20560;DHT22;10438;51.454;6.718;2022-10-17T02:48:15;16.80;99.90
20560;DHT22;10438;51.454;6.718;2022-10-17T02:53:30;16.80;99.90
20560;DHT22;10438;51.454;6.718;2022-10-17T02:56:01;16.90;99.90
20560;DHT22;10438;51.454;6.718;2022-10-17T02:58:31;16.90;99.90
20560;DHT22;10438;51.454;6.718;2022-10-17T03:00:58;16.90;99.90
20560;DHT22;10438;51.454;6.718;2022-10-17T03:03:29;16.90;99.90
20560;DHT22;10438;51.454;6.718;2022-10-17T03:05:55;16.90;99.90
20560;DHT22;10438;51.454;6.718;2022-10-17T03:08:21;16.90;99.90
20560;DHT22;10438;51.454;6.718;2022-10-17T03:10:47;16.90;99.90
20560;DHT22;10438;51.454;6.718;2022-10-17T03:13:13;16.90;99.90
20560;DHT22;10438;51.454;6.718;2022-10-17T03:15:38;17.00;99.90
20560;DHT22;10438;51.454;6.718;2022-10-17T03:18:04;17.00;99.90
20560;DHT22;10438;51.454;6.718;2022-10-17T03:20:29;16.90;99.90
20560;DHT22;10438;51.454;6.718;2022-10-17T03:22:55;16.90;99.90
20560;DHT22;10438;51.454;6.718;2022-10-17T03:25:20;16.90;99.90
20560;DHT22;10438;51.454;6.718;2022-10-17T03:27:46;17.00;99.90
20560;DHT22;10438;51.454;6.718;2022-10-17T03:30:12;17.00;99.90
20560;DHT22;10438;51.454;6.718;2022-10-17T03:32:37;17.00;99.90
20560;DHT22;10438;51.454;6.718;2022-10-17T03:35:03;17.00;99.90
20560;DHT22;10438;51.454;6.718;2022-10-17T03:37:28;17.10;99.90
20560;DHT22;10438;51.454;6.718;2022-10-17T03:39:54;17.10;99.90
20560;DHT22;10438;51.454;6.718;2022-10-17T03:42:19;17.10;99.90
20560;DHT22;10438;51.454;6.718;2022-10-17T03:44:45;17.10;99.90
20560;DHT22;10438;51.454;6.718;2022-10-17T03:47:10;17.10;99.90
20560;DHT22;10438;51.454;6.718;2022-10-17T03:49:36;17.10;99.90
20560;DHT22;10438;51.454;6.718;2022-10-17T03:52:02;17.10;99.90
20560;DHT22;10438;51.454;6.718;2022-10-17T03:54:27;17.10;99.90
20560;DHT22;10438;51.454;6.718;2022-10-17T03:56:53;17.20;99.90
20560;DHT22;10438;51.454;6.718;2022-10-17T03:59:19;17.20;99.90
20560;DHT22;10438;51.454;6.718;2022-10-17T04:01:44;17.20;99.90
20560;DHT22;10438;51.454;6.718;2022-10-17T04:04:10;17.20;99.90
20560;DHT22;10438;51.454;6.718;2022-10-17T04:06:36;17.20;99.90
20560;DHT22;10438;51.454;6.718;2022-10-17T04:09:02;17.20;99.90
20560;DHT22;10438;51.454;6.718;2022-10-17T04:11:28;17.20;99.90
20560;DHT22;10438;51.454;6.718;2022-10-17T04:13:55;17.20;99.90
20560;DHT22;10438;51.454;6.718;2022-10-17T04:16:22;17.20;99.90
20560;DHT22;10438;51.454;6.718;2022-10-17T04:18:55;17.20;99.90
20560;DHT22;10438;51.454;6.718;2022-10-17T04:21:22;17.20;99.90
20560;DHT22;10438;51.454;6.718;2022-10-17T04:23:55;17.20;99.90
20560;DHT22;10438;51.454;6.718;2022-10-17T04:26:21;17.30;99.90
20560;DHT22;10438;51.454;6.718;2022-10-17T04:28:47;17.30;99.90
20560;DHT22;10438;51.454;6.718;2022-10-17T04:31:14;17.30;99.90
20560;DHT22;10438;51.454;6.718;2022-10-17T04:33:39;17.30;99.90
20560;DHT22;10438;51.454;6.718;2022-10-17T04:36:09;17.30;99.90
20560;DHT22;10438;51.454;6.718;2022-10-17T04:38:35;17.40;99.90
20560;DHT22;10438;51.454;6.718;2022-10-17T04:41:03;17.40;99.90
20560;DHT22;10438;51.454;6.718;2022-10-17T04:43:29;17.40;99.90
20560;DHT22;10438;51.454;6.718;2022-10-17T04:45:57;17.30;99.90
20560;DHT22;10438;51.454;6.718;2022-10-17T04:48:23;17.30;99.90
20560;DHT22;10438;51.454;6.718;2022-10-17T04:50:56;17.40;99.90
20560;DHT22;10438;51.454;6.718;2022-10-17T04:53:22;17.40;99.90
20560;DHT22;10438;51.454;6.718;2022-10-17T04:55:48;17.40;99.90
20560;DHT22;10438;51.454;6.718;2022-10-17T04:58:14;17.40;99.90
20560;DHT22;10438;51.454;6.718;2022-10-17T05:00:40;17.30;99.90
20560;DHT22;10438;51.454;6.718;2022-10-17T05:03:05;17.30;99.90
20560;DHT22;10438;51.454;6.718;2022-10-17T05:05:31;17.40;99.90
20560;DHT22;10438;51.454;6.718;2022-10-17T05:07:56;17.40;99.90
20560;DHT22;10438;51.454;6.718;2022-10-17T05:10:22;17.40;99.90
20560;DHT22;10438;51.454;6.718;2022-10-17T05:12:48;17.50;99.90
20560;DHT22;10438;51.454;6.718;2022-10-17T05:15:14;17.50;99.90
20560;DHT22;10438;51.454;6.718;2022-10-17T05:17:39;17.50;99.90
20560;DHT22;10438;51.454;6.718;2022-10-17T05:20:06;17.50;99.90
20560;DHT22;10438;51.454;6.718;2022-10-17T05:22:31;17.50;99.90
20560;DHT22;10438;51.454;6.718;2022-10-17T05:24:57;17.50;99.90
20560;DHT22;10438;51.454;6.718;2022-10-17T05:27:22;17.60;99.90
20560;DHT22;10438;51.454;6.718;2022-10-17T05:29:48;17.60;99.90
20560;DHT22;10438;51.454;6.718;2022-10-17T05:32:14;17.60;99.90
20560;DHT22;10438;51.454;6.718;2022-10-17T05:34:40;17.60;99.90
20560;DHT22;10438;51.454;6.718;2022-10-17T05:37:06;17.60;99.90
20560;DHT22;10438;51.454;6.718;2022-10-17T05:39:31;17.60;99.90
20560;DHT22;10438;51.454;6.718;2022-10-17T05:41:57;17.60;99.90
20560;DHT22;10438;51.454;6.718;2022-10-17T05:44:22;17.60;99.90
20560;DHT22;10438;51.454;6.718;2022-10-17T05:46:50;17.50;99.90
20560;DHT22;10438;51.454;6.718;2022-10-17T05:49:16;17.50;99.90
20560;DHT22;10438;51.454;6.718;2022-10-17T05:51:42;17.50;99.90
20560;DHT22;10438;51.454;6.718;2022-10-17T05:54:08;17.50;99.90
20560;DHT22;10438;51.454;6.718;2022-10-17T05:56:34;17.50;99.90
20560;DHT22;10438;51.454;6.718;2022-10-17T05:59:00;17.50;99.90
20560;DHT22;10438;51.454;6.718;2022-10-17T06:01:26;17.50;99.90
20560;DHT22;10438;51.454;6.718;2022-10-17T06:03:51;17.60;99.90
20560;DHT22;10438;51.454;6.718;2022-10-17T06:06:17;17.60;99.90
20560;DHT22;10438;51.454;6.718;2022-10-17T06:08:43;17.50;99.90
20560;DHT22;10438;51.454;6.718;2022-10-17T06:11:09;17.50;99.90
20560;DHT22;10438;51.454;6.718;2022-10-17T06:13:36;17.50;99.90
20560;DHT22;10438;51.454;6.718;2022-10-17T06:16:01;17.50;99.90
20560;DHT22;10438;51.454;6.718;2022-10-17T06:18:27;17.50;99.90
20560;DHT22;10438;51.454;6.718;2022-10-17T06:20:53;17.50;99.90
20560;DHT22;10438;51.454;6.718;2022-10-17T06:23:19;17.50;99.90
20560;DHT22;10438;51.454;6.718;2022-10-17T06:25:44;17.50;99.90
20560;DHT22;10438;51.454;6.718;2022-10-17T06:28:10;17.60;99.90
20560;DHT22;10438;51.454;6.718;2022-10-17T06:30:38;17.60;99.90
20560;DHT22;10438;51.454;6.718;2022-10-17T06:33:04;17.60;99.90
20560;DHT22;10438;51.454;6.718;2022-10-17T06:35:30;17.60;99.90
20560;DHT22;10438;51.454;6.718;2022-10-17T06:37:55;17.60;99.90
20560;DHT22;10438;51.454;6.718;2022-10-17T06:40:21;17.60;99.90
20560;DHT22;10438;51.454;6.718;2022-10-17T06:42:47;17.60;99.90
20560;DHT22;10438;51.454;6.718;2022-10-17T06:45:13;17.60;99.90
20560;DHT22;10438;51.454;6.718;2022-10-17T06:47:38;17.70;99.90
20560;DHT22;10438;51.454;6.718;2022-10-17T06:50:04;17.70;99.90
20560;DHT22;10438;51.454;6.718;2022-10-17T06:52:30;17.70;99.90
20560;DHT22;10438;51.454;6.718;2022-10-17T06:54:55;17.70;99.90
20560;DHT22;10438;51.454;6.718;2022-10-17T06:57:21;17.80;99.90
20560;DHT22;10438;51.454;6.718;2022-10-17T06:59:46;17.80;99.90
20560;DHT22;10438;51.454;6.718;2022-10-17T07:02:12;17.80;99.90
20560;DHT22;10438;51.454;6.718;2022-10-17T07:04:38;17.80;99.90
20560;DHT22;10438;51.454;6.718;2022-10-17T07:07:03;17.80;99.90
20560;DHT22;10438;51.454;6.718;2022-10-17T07:09:29;17.80;99.90
20560;DHT22;10438;51.454;6.718;2022-10-17T07:11:56;17.80;99.90
20560;DHT22;10438;51.454;6.718;2022-10-17T07:14:21;17.80;99.90
20560;DHT22;10438;51.454;6.718;2022-10-17T07:16:47;17.90;99.90
20560;DHT22;10438;51.454;6.718;2022-10-17T07:19:13;17.90;99.90
20560;DHT22;10438;51.454;6.718;2022-10-17T07:21:38;17.90;99.90
20560;DHT22;10438;51.454;6.718;2022-10-17T07:24:04;18.00;99.90
20560;DHT22;10438;51.454;6.718;2022-10-17T07:26:31;18.00;99.90
20560;DHT22;10438;51.454;6.718;2022-10-17T07:28:57;18.00;99.90
20560;DHT22;10438;51.454;6.718;2022-10-17T07:31:23;18.10;99.90
20560;DHT22;10438;51.454;6.718;2022-10-17T07:33:49;18.10;99.90
20560;DHT22;10438;51.454;6.718;2022-10-17T07:36:15;18.20;99.90
20560;DHT22;10438;51.454;6.718;2022-10-17T07:38:41;18.20;99.90
20560;DHT22;10438;51.454;6.718;2022-10-17T07:41:07;18.30;99.90
20560;DHT22;10438;51.454;6.718;2022-10-17T07:43:34;18.30;99.90
20560;DHT22;10438;51.454;6.718;2022-10-17T07:46:02;18.40;99.90
20560;DHT22;10438;51.454;6.718;2022-10-17T07:48:28;18.40;99.90
20560;DHT22;10438;51.454;6.718;2022-10-17T07:50:54;18.50;99.90
20560;DHT22;10438;51.454;6.718;2022-10-17T07:53:20;18.60;99.90
20560;DHT22;10438;51.454;6.718;2022-10-17T07:55:45;18.60;99.90
20560;DHT22;10438;51.454;6.718;2022-10-17T07:58:12;18.60;99.90
20560;DHT22;10438;51.454;6.718;2022-10-17T08:00:38;18.70;99.90
20560;DHT22;10438;51.454;6.718;2022-10-17T08:03:05;18.70;99.90
20560;DHT22;10438;51.454;6.718;2022-10-17T08:05:31;18.70;99.90
20560;DHT22;10438;51.454;6.718;2022-10-17T08:07:57;18.80;99.90
20560;DHT22;10438;51.454;6.718;2022-10-17T08:10:23;18.90;99.90
20560;DHT22;10438;51.454;6.718;2022-10-17T08:12:54;18.90;99.90
20560;DHT22;10438;51.454;6.718;2022-10-17T08:15:20;18.90;99.90
20560;DHT22;10438;51.454;6.718;2022-10-17T08:17:46;19.00;99.90
20560;DHT22;10438;51.454;6.718;2022-10-17T08:20:11;19.10;99.90
20560;DHT22;10438;51.454;6.718;2022-10-17T08:22:37;19.10;99.90
20560;DHT22;10438;51.454;6.718;2022-10-17T08:25:03;19.10;99.90
20560;DHT22;10438;51.454;6.718;2022-10-17T08:27:28;19.10;99.90
20560;DHT22;10438;51.454;6.718;2022-10-17T08:29:54;19.10;99.90
20560;DHT22;10438;51.454;6.718;2022-10-17T08:32:21;19.20;99.90
20560;DHT22;10438;51.454;6.718;2022-10-17T08:34:48;19.40;99.90
20560;DHT22;10438;51.454;6.718;2022-10-17T08:37:13;19.40;99.90
20560;DHT22;10438;51.454;6.718;2022-10-17T08:39:42;19.40;99.90
20560;DHT22;10438;51.454;6.718;2022-10-17T08:47:42;19.60;99.90
20560;DHT22;10438;51.454;6.718;2022-10-17T08:55:36;19.70;99.90
20560;DHT22;10438;51.454;6.718;2022-10-17T08:58:11;19.70;99.90
20560;DHT22;10438;51.454;6.718;2022-10-17T09:00:37;19.70;99.90
20560;DHT22;10438;51.454;6.718;2022-10-17T09:06:10;19.80;99.90
20560;DHT22;10438;51.454;6.718;2022-10-17T09:17:02;20.30;99.90
20560;DHT22;10438;51.454;6.718;2022-10-17T09:19:37;20.30;99.90
20560;DHT22;10438;51.454;6.718;2022-10-17T09:22:10;20.20;99.90
20560;DHT22;10438;51.454;6.718;2022-10-17T09:24:47;20.20;99.90
20560;DHT22;10438;51.454;6.718;2022-10-17T09:27:26;20.30;99.90
20560;DHT22;10438;51.454;6.718;2022-10-17T09:30:28;20.30;99.90
20560;DHT22;10438;51.454;6.718;2022-10-17T09:32:54;20.20;99.90
20560;DHT22;10438;51.454;6.718;2022-10-17T09:35:21;20.10;99.90
20560;DHT22;10438;51.454;6.718;2022-10-17T09:37:47;20.00;99.90
20560;DHT22;10438;51.454;6.718;2022-10-17T09:40:32;20.00;99.90
20560;DHT22;10438;51.454;6.718;2022-10-17T09:43:00;19.90;99.90
20560;DHT22;10438;51.454;6.718;2022-10-17T09:45:28;19.90;99.90
20560;DHT22;10438;51.454;6.718;2022-10-17T09:50:35;19.90;99.90
20560;DHT22;10438;51.454;6.718;2022-10-17T09:53:23;19.80;99.90
20560;DHT22;10438;51.454;6.718;2022-10-17T09:55:56;19.80;99.90
20560;DHT22;10438;51.454;6.718;2022-10-17T09:58:23;19.80;99.90
20560;DHT22;10438;51.454;6.718;2022-10-17T10:00:49;19.70;99.90
20560;DHT22;10438;51.454;6.718;2022-10-17T10:08:30;19.70;99.90
20560;DHT22;10438;51.454;6.718;2022-10-17T10:11:01;19.70;99.90
20560;DHT22;10438;51.454;6.718;2022-10-17T10:13:30;19.60;99.90
20560;DHT22;10438;51.454;6.718;2022-10-17T10:16:20;19.60;99.90
20560;DHT22;10438;51.454;6.718;2022-10-17T10:18:46;19.50;99.90
20560;DHT22;10438;51.454;6.718;2022-10-17T10:21:18;19.40;99.90
20560;DHT22;10438;51.454;6.718;2022-10-17T10:26:48;19.50;99.90
20560;DHT22;10438;51.454;6.718;2022-10-17T10:29:33;19.60;99.90
20560;DHT22;10438;51.454;6.718;2022-10-17T10:32:33;19.70;99.90
20560;DHT22;10438;51.454;6.718;2022-10-17T10:35:06;19.80;99.90
20560;DHT22;10438;51.454;6.718;2022-10-17T10:37:37;19.90;99.90
20560;DHT22;10438;51.454;6.718;2022-10-17T10:40:06;19.90;99.90
20560;DHT22;10438;51.454;6.718;2022-10-17T10:42:39;19.90;99.90
20560;DHT22;10438;51.454;6.718;2022-10-17T10:45:24;20.00;99.90
20560;DHT22;10438;51.454;6.718;2022-10-17T10:47:59;19.90;99.90
20560;DHT22;10438;51.454;6.718;2022-10-17T10:50:49;19.90;99.90
20560;DHT22;10438;51.454;6.718;2022-10-17T10:53:54;19.90;99.90
20560;DHT22;10438;51.454;6.718;2022-10-17T11:04:43;19.70;99.90
20560;DHT22;10438;51.454;6.718;2022-10-17T11:12:53;19.60;99.90
20560;DHT22;10438;51.454;6.718;2022-10-17T11:15:41;19.40;99.90
20560;DHT22;10438;51.454;6.718;2022-10-17T11:20:59;19.20;99.90
20560;DHT22;10438;51.454;6.718;2022-10-17T11:23:42;19.20;99.90
20560;DHT22;10438;51.454;6.718;2022-10-17T11:26:14;19.10;99.90
20560;DHT22;10438;51.454;6.718;2022-10-17T11:28:42;19.10;99.90
20560;DHT22;10438;51.454;6.718;2022-10-17T11:31:11;19.10;99.90
20560;DHT22;10438;51.454;6.718;2022-10-17T11:36:17;19.10;99.90
20560;DHT22;10438;51.454;6.718;2022-10-17T11:38:59;19.20;99.90
20560;DHT22;10438;51.454;6.718;2022-10-17T11:41:40;19.30;99.90
20560;DHT22;10438;51.454;6.718;2022-10-17T11:47:12;19.60;99.90
20560;DHT22;10438;51.454;6.718;2022-10-17T11:49:48;19.60;99.90
20560;DHT22;10438;51.454;6.718;2022-10-17T11:55:10;19.70;99.90
20560;DHT22;10438;51.454;6.718;2022-10-17T11:57:53;19.70;99.90
20560;DHT22;10438;51.454;6.718;2022-10-17T12:03:17;19.60;99.90
20560;DHT22;10438;51.454;6.718;2022-10-17T12:06:02;19.50;99.90
20560;DHT22;10438;51.454;6.718;2022-10-17T12:08:45;19.60;99.90
20560;DHT22;10438;51.454;6.718;2022-10-17T12:14:43;19.50;99.90
20560;DHT22;10438;51.454;6.718;2022-10-17T12:22:49;19.40;99.90
20560;DHT22;10438;51.454;6.718;2022-10-17T12:26:08;19.40;99.90
20560;DHT22;10438;51.454;6.718;2022-10-17T12:28:30;19.40;99.90
20560;DHT22;10438;51.454;6.718;2022-10-17T12:38:50;19.40;99.90
20560;DHT22;10438;51.454;6.718;2022-10-17T12:57:57;19.60;99.90
20560;DHT22;10438;51.454;6.718;2022-10-17T13:03:41;19.60;99.90
20560;DHT22;10438;51.454;6.718;2022-10-17T13:06:15;19.50;99.90
20560;DHT22;10438;51.454;6.718;2022-10-17T13:08:47;19.50;99.90
20560;DHT22;10438;51.454;6.718;2022-10-17T13:11:13;19.50;99.90
20560;DHT22;10438;51.454;6.718;2022-10-17T13:13:47;19.50;99.90
20560;DHT22;10438;51.454;6.718;2022-10-17T13:16:36;19.50;99.90
20560;DHT22;10438;51.454;6.718;2022-10-17T13:19:14;19.50;99.90
20560;DHT22;10438;51.454;6.718;2022-10-17T13:21:52;19.50;99.90
20560;DHT22;10438;51.454;6.718;2022-10-17T13:24:32;19.50;99.90
20560;DHT22;10438;51.454;6.718;2022-10-17T13:26:59;19.50;99.90
20560;DHT22;10438;51.454;6.718;2022-10-17T13:29:25;19.50;99.90
20560;DHT22;10438;51.454;6.718;2022-10-17T13:31:55;19.60;99.90
20560;DHT22;10438;51.454;6.718;2022-10-17T13:34:23;19.60;99.90
20560;DHT22;10438;51.454;6.718;2022-10-17T13:36:54;19.60;99.90
20560;DHT22;10438;51.454;6.718;2022-10-17T13:39:23;19.50;99.90
20560;DHT22;10438;51.454;6.718;2022-10-17T13:41:52;19.60;99.90
20560;DHT22;10438;51.454;6.718;2022-10-17T13:44:22;19.60;99.90
20560;DHT22;10438;51.454;6.718;2022-10-17T13:46:49;19.50;99.90
20560;DHT22;10438;51.454;6.718;2022-10-17T13:49:30;19.60;99.90
20560;DHT22;10438;51.454;6.718;2022-10-17T13:51:57;19.60;99.90
20560;DHT22;10438;51.454;6.718;2022-10-17T13:54:38;19.60;99.90
20560;DHT22;10438;51.454;6.718;2022-10-17T13:57:22;19.70;99.90
20560;DHT22;10438;51.454;6.718;2022-10-17T13:59:52;19.70;99.90
20560;DHT22;10438;51.454;6.718;2022-10-17T14:02:24;19.80;99.90
20560;DHT22;10438;51.454;6.718;2022-10-17T14:08:01;19.80;99.90
20560;DHT22;10438;51.454;6.718;2022-10-17T14:10:30;19.80;99.90
20560;DHT22;10438;51.454;6.718;2022-10-17T14:12:57;19.90;99.90
20560;DHT22;10438;51.454;6.718;2022-10-17T14:15:32;19.90;99.90
20560;DHT22;10438;51.454;6.718;2022-10-17T14:18:04;19.90;99.90
20560;DHT22;10438;51.454;6.718;2022-10-17T14:20:30;19.80;99.90
20560;DHT22;10438;51.454;6.718;2022-10-17T14:22:57;19.80;99.90
20560;DHT22;10438;51.454;6.718;2022-10-17T14:25:37;19.70;99.90
20560;DHT22;10438;51.454;6.718;2022-10-17T14:30:45;19.70;99.90
20560;DHT22;10438;51.454;6.718;2022-10-17T14:33:27;19.70;99.90
20560;DHT22;10438;51.454;6.718;2022-10-17T14:35:55;19.60;99.90
20560;DHT22;10438;51.454;6.718;2022-10-17T14:38:22;19.60;99.90
20560;DHT22;10438;51.454;6.718;2022-10-17T14:40:50;19.60;99.90
20560;DHT22;10438;51.454;6.718;2022-10-17T14:43:21;19.60;99.90
20560;DHT22;10438;51.454;6.718;2022-10-17T14:45:47;19.60;99.90
20560;DHT22;10438;51.454;6.718;2022-10-17T14:48:17;19.50;99.90
20560;DHT22;10438;51.454;6.718;2022-10-17T14:51:10;19.50;99.90
20560;DHT22;10438;51.454;6.718;2022-10-17T14:53:37;19.50;99.90
20560;DHT22;10438;51.454;6.718;2022-10-17T14:58:46;19.40;99.90
20560;DHT22;10438;51.454;6.718;2022-10-17T15:01:11;19.40;99.90
20560;DHT22;10438;51.454;6.718;2022-10-17T15:03:37;19.30;99.90
20560;DHT22;10438;51.454;6.718;2022-10-17T15:06:32;19.30;99.90
20560;DHT22;10438;51.454;6.718;2022-10-17T15:08:58;19.30;99.90
20560;DHT22;10438;51.454;6.718;2022-10-17T15:11:24;19.20;99.90
20560;DHT22;10438;51.454;6.718;2022-10-17T15:13:50;19.10;99.90
20560;DHT22;10438;51.454;6.718;2022-10-17T15:16:21;19.10;99.90
20560;DHT22;10438;51.454;6.718;2022-10-17T15:18:47;19.10;99.90
20560;DHT22;10438;51.454;6.718;2022-10-17T15:21:14;19.00;99.90
20560;DHT22;10438;51.454;6.718;2022-10-17T15:23:41;18.90;99.90
20560;DHT22;10438;51.454;6.718;2022-10-17T15:28:45;18.80;99.90
20560;DHT22;10438;51.454;6.718;2022-10-17T15:31:13;18.70;99.90
20560;DHT22;10438;51.454;6.718;2022-10-17T15:33:39;18.70;99.90
20560;DHT22;10438;51.454;6.718;2022-10-17T15:36:14;18.60;99.90
20560;DHT22;10438;51.454;6.718;2022-10-17T15:38:41;18.60;99.90
20560;DHT22;10438;51.454;6.718;2022-10-17T15:41:09;18.60;99.90
20560;DHT22;10438;51.454;6.718;2022-10-17T15:43:35;18.50;99.90
20560;DHT22;10438;51.454;6.718;2022-10-17T15:46:00;18.50;99.90
20560;DHT22;10438;51.454;6.718;2022-10-17T15:48:28;18.50;99.90
20560;DHT22;10438;51.454;6.718;2022-10-17T15:50:55;18.40;99.90
20560;DHT22;10438;51.454;6.718;2022-10-17T15:53:20;18.40;99.90
20560;DHT22;10438;51.454;6.718;2022-10-17T15:55:46;18.40;99.90
20560;DHT22;10438;51.454;6.718;2022-10-17T15:58:16;18.40;99.90
20560;DHT22;10438;51.454;6.718;2022-10-17T16:00:41;18.30;99.90
20560;DHT22;10438;51.454;6.718;2022-10-17T16:03:07;18.30;99.90
20560;DHT22;10438;51.454;6.718;2022-10-17T16:05:33;18.20;99.90
20560;DHT22;10438;51.454;6.718;2022-10-17T16:07:58;18.20;99.90
20560;DHT22;10438;51.454;6.718;2022-10-17T16:10:24;18.10;99.90
20560;DHT22;10438;51.454;6.718;2022-10-17T16:12:50;18.00;99.90
20560;DHT22;10438;51.454;6.718;2022-10-17T16:15:19;18.00;99.90
20560;DHT22;10438;51.454;6.718;2022-10-17T16:17:47;18.00;99.90
20560;DHT22;10438;51.454;6.718;2022-10-17T16:20:12;18.00;99.90
20560;DHT22;10438;51.454;6.718;2022-10-17T16:22:38;17.90;99.90
20560;DHT22;10438;51.454;6.718;2022-10-17T16:25:15;17.90;99.90
20560;DHT22;10438;51.454;6.718;2022-10-17T16:27:44;17.90;99.90
20560;DHT22;10438;51.454;6.718;2022-10-17T16:30:11;17.80;99.90
20560;DHT22;10438;51.454;6.718;2022-10-17T16:32:37;17.80;99.90
20560;DHT22;10438;51.454;6.718;2022-10-17T16:35:03;17.80;99.90
20560;DHT22;10438;51.454;6.718;2022-10-17T16:37:29;17.80;99.90
20560;DHT22;10438;51.454;6.718;2022-10-17T16:39:54;17.70;99.90
20560;DHT22;10438;51.454;6.718;2022-10-17T16:42:20;17.70;99.90
20560;DHT22;10438;51.454;6.718;2022-10-17T16:44:47;17.70;99.90
20560;DHT22;10438;51.454;6.718;2022-10-17T16:47:13;17.70;99.90
20560;DHT22;10438;51.454;6.718;2022-10-17T16:49:38;17.70;99.90
20560;DHT22;10438;51.454;6.718;2022-10-17T16:52:04;17.70;99.90
20560;DHT22;10438;51.454;6.718;2022-10-17T16:54:30;17.70;99.90
20560;DHT22;10438;51.454;6.718;2022-10-17T16:56:55;17.70;99.90
20560;DHT22;10438;51.454;6.718;2022-10-17T16:59:24;17.70;99.90
20560;DHT22;10438;51.454;6.718;2022-10-17T17:01:49;17.70;99.90
20560;DHT22;10438;51.454;6.718;2022-10-17T17:04:15;17.70;99.90
20560;DHT22;10438;51.454;6.718;2022-10-17T17:06:41;17.70;99.90
20560;DHT22;10438;51.454;6.718;2022-10-17T17:09:06;17.60;99.90
20560;DHT22;10438;51.454;6.718;2022-10-17T17:11:34;17.60;99.90
20560;DHT22;10438;51.454;6.718;2022-10-17T17:14:04;17.60;99.90
20560;DHT22;10438;51.454;6.718;2022-10-17T17:16:31;17.50;99.90
20560;DHT22;10438;51.454;6.718;2022-10-17T17:19:03;17.50;99.90
20560;DHT22;10438;51.454;6.718;2022-10-17T17:21:30;17.50;99.90
20560;DHT22;10438;51.454;6.718;2022-10-17T17:23:58;17.50;99.90
20560;DHT22;10438;51.454;6.718;2022-10-17T17:26:25;17.40;99.90
20560;DHT22;10438;51.454;6.718;2022-10-17T17:28:51;17.40;99.90
20560;DHT22;10438;51.454;6.718;2022-10-17T17:31:21;17.40;99.90
20560;DHT22;10438;51.454;6.718;2022-10-17T17:33:47;17.40;99.90
20560;DHT22;10438;51.454;6.718;2022-10-17T17:36:15;17.50;99.90
20560;DHT22;10438;51.454;6.718;2022-10-17T17:38:45;17.50;99.90
20560;DHT22;10438;51.454;6.718;2022-10-17T17:41:16;17.40;99.90
20560;DHT22;10438;51.454;6.718;2022-10-17T17:43:42;17.50;99.90
20560;DHT22;10438;51.454;6.718;2022-10-17T17:46:08;17.50;99.90
20560;DHT22;10438;51.454;6.718;2022-10-17T17:48:38;17.40;99.90
20560;DHT22;10438;51.454;6.718;2022-10-17T17:51:05;17.50;99.90
20560;DHT22;10438;51.454;6.718;2022-10-17T17:53:31;17.40;99.90
20560;DHT22;10438;51.454;6.718;2022-10-17T17:56:17;17.40;99.90